sensor_id;sensor_type;location;lat;lon;timestamp;temperature;humidity
17172;DHT22;8701;50.150;8.756;2023-06-10T00:01:13;21.00;99.90
17172;DHT22;8701;50.150;8.756;2023-06-10T00:05:15;21.00;99.90
17172;DHT22;8701;50.150;8.756;2023-06-10T00:09:20;20.90;99.90
17172;DHT22;8701;50.150;8.756;2023-06-10T00:13:25;20.90;99.90
17172;DHT22;8701;50.150;8.756;2023-06-10T00:17:27;20.80;99.90
17172;DHT22;8701;50.150;8.756;2023-06-10T00:21:31;20.90;99.90
17172;DHT22;8701;50.150;8.756;2023-06-10T00:25:38;20.80;99.90
17172;DHT22;8701;50.150;8.756;2023-06-10T00:29:41;20.80;99.90
17172;DHT22;8701;50.150;8.756;2023-06-10T00:33:44;20.70;99.90
17172;DHT22;8701;50.150;8.756;2023-06-10T00:37:46;20.70;99.90
17172;DHT22;8701;50.150;8.756;2023-06-10T00:41:50;20.70;99.90
17172;DHT22;8701;50.150;8.756;2023-06-10T00:45:54;20.70;99.90
17172;DHT22;8701;50.150;8.756;2023-06-10T00:49:58;20.60;99.90
17172;DHT22;8701;50.150;8.756;2023-06-10T00:54:00;20.60;99.90
17172;DHT22;8701;50.150;8.756;2023-06-10T00:58:03;20.60;99.90
17172;DHT22;8701;50.150;8.756;2023-06-10T01:02:08;20.60;99.90
17172;DHT22;8701;50.150;8.756;2023-06-10T01:06:18;20.60;99.90
17172;DHT22;8701;50.150;8.756;2023-06-10T01:10:29;20.50;99.90
17172;DHT22;8701;50.150;8.756;2023-06-10T01:14:33;20.50;99.90
17172;DHT22;8701;50.150;8.756;2023-06-10T01:18:37;20.50;99.90
17172;DHT22;8701;50.150;8.756;2023-06-10T01:22:41;20.40;99.90
17172;DHT22;8701;50.150;8.756;2023-06-10T01:26:45;20.30;99.90
17172;DHT22;8701;50.150;8.756;2023-06-10T01:30:52;20.30;99.90
17172;DHT22;8701;50.150;8.756;2023-06-10T01:34:57;20.30;99.90
17172;DHT22;8701;50.150;8.756;2023-06-10T01:39:03;20.20;99.90
17172;DHT22;8701;50.150;8.756;2023-06-10T01:43:06;20.20;99.90
17172;DHT22;8701;50.150;8.756;2023-06-10T01:47:09;20.10;99.90
17172;DHT22;8701;50.150;8.756;2023-06-10T01:51:11;20.10;99.90
17172;DHT22;8701;50.150;8.756;2023-06-10T01:55:14;20.10;99.90
17172;DHT22;8701;50.150;8.756;2023-06-10T01:59:17;20.10;99.90
17172;DHT22;8701;50.150;8.756;2023-06-10T02:03:19;20.00;99.90
17172;DHT22;8701;50.150;8.756;2023-06-10T02:07:21;20.00;99.90
17172;DHT22;8701;50.150;8.756;2023-06-10T02:11:25;20.00;99.90
17172;DHT22;8701;50.150;8.756;2023-06-10T02:15:28;19.90;99.90
17172;DHT22;8701;50.150;8.756;2023-06-10T02:19:30;19.90;99.90
17172;DHT22;8701;50.150;8.756;2023-06-10T02:23:32;19.80;99.90
17172;DHT22;8701;50.150;8.756;2023-06-10T02:27:36;19.80;99.90
17172;DHT22;8701;50.150;8.756;2023-06-10T02:31:38;19.70;99.90
17172;DHT22;8701;50.150;8.756;2023-06-10T02:35:41;19.70;99.90
17172;DHT22;8701;50.150;8.756;2023-06-10T02:39:43;19.60;99.90
17172;DHT22;8701;50.150;8.756;2023-06-10T02:43:48;19.60;99.90
17172;DHT22;8701;50.150;8.756;2023-06-10T02:47:51;19.60;99.90
17172;DHT22;8701;50.150;8.756;2023-06-10T02:51:53;19.60;99.90
17172;DHT22;8701;50.150;8.756;2023-06-10T02:55:58;19.60;99.90
17172;DHT22;8701;50.150;8.756;2023-06-10T03:00:02;19.50;99.90
17172;DHT22;8701;50.150;8.756;2023-06-10T03:04:10;19.50;99.90
17172;DHT22;8701;50.150;8.756;2023-06-10T03:08:15;19.40;99.90
17172;DHT22;8701;50.150;8.756;2023-06-10T03:12:19;19.40;99.90
17172;DHT22;8701;50.150;8.756;2023-06-10T03:16:25;19.40;99.90
17172;DHT22;8701;50.150;8.756;2023-06-10T03:20:28;19.40;99.90
17172;DHT22;8701;50.150;8.756;2023-06-10T03:24:31;19.30;99.90
17172;DHT22;8701;50.150;8.756;2023-06-10T03:28:34;19.30;99.90
17172;DHT22;8701;50.150;8.756;2023-06-10T03:32:38;19.30;99.90
17172;DHT22;8701;50.150;8.756;2023-06-10T03:36:43;19.30;99.90
17172;DHT22;8701;50.150;8.756;2023-06-10T03:40:45;19.20;99.90
17172;DHT22;8701;50.150;8.756;2023-06-10T03:44:48;19.20;99.90
17172;DHT22;8701;50.150;8.756;2023-06-10T03:48:51;19.20;99.90
17172;DHT22;8701;50.150;8.756;2023-06-10T03:52:54;19.20;99.90
17172;DHT22;8701;50.150;8.756;2023-06-10T03:57:00;19.10;99.90
17172;DHT22;8701;50.150;8.756;2023-06-10T04:05:21;19.20;99.90
17172;DHT22;8701;50.150;8.756;2023-06-10T04:09:23;19.20;99.90
17172;DHT22;8701;50.150;8.756;2023-06-10T04:13:26;19.20;99.90
17172;DHT22;8701;50.150;8.756;2023-06-10T04:17:32;19.20;99.90
17172;DHT22;8701;50.150;8.756;2023-06-10T04:21:35;19.20;99.90
17172;DHT22;8701;50.150;8.756;2023-06-10T04:25:38;19.20;99.90
17172;DHT22;8701;50.150;8.756;2023-06-10T04:29:40;19.20;99.90
17172;DHT22;8701;50.150;8.756;2023-06-10T04:33:42;19.20;99.90
17172;DHT22;8701;50.150;8.756;2023-06-10T04:37:47;19.30;99.90
17172;DHT22;8701;50.150;8.756;2023-06-10T04:41:50;19.30;99.90
17172;DHT22;8701;50.150;8.756;2023-06-10T04:45:53;19.30;99.90
17172;DHT22;8701;50.150;8.756;2023-06-10T04:49:55;19.30;99.90
17172;DHT22;8701;50.150;8.756;2023-06-10T04:53:59;19.40;99.90
17172;DHT22;8701;50.150;8.756;2023-06-10T04:58:03;19.30;99.90
17172;DHT22;8701;50.150;8.756;2023-06-10T05:02:05;19.40;99.90
17172;DHT22;8701;50.150;8.756;2023-06-10T05:06:07;19.40;99.90
17172;DHT22;8701;50.150;8.756;2023-06-10T05:10:12;19.40;99.90
17172;DHT22;8701;50.150;8.756;2023-06-10T05:14:14;19.50;99.90
17172;DHT22;8701;50.150;8.756;2023-06-10T05:18:17;19.60;99.90
17172;DHT22;8701;50.150;8.756;2023-06-10T05:22:19;19.60;99.90
17172;DHT22;8701;50.150;8.756;2023-06-10T05:26:26;19.60;99.90
17172;DHT22;8701;50.150;8.756;2023-06-10T05:30:29;19.70;99.90
17172;DHT22;8701;50.150;8.756;2023-06-10T05:34:32;19.70;99.90
17172;DHT22;8701;50.150;8.756;2023-06-10T05:38:34;19.80;99.90
17172;DHT22;8701;50.150;8.756;2023-06-10T05:42:37;19.90;99.90
17172;DHT22;8701;50.150;8.756;2023-06-10T05:46:40;19.90;99.90
17172;DHT22;8701;50.150;8.756;2023-06-10T05:50:42;20.00;99.90
17172;DHT22;8701;50.150;8.756;2023-06-10T05:54:49;20.10;99.90
17172;DHT22;8701;50.150;8.756;2023-06-10T05:58:53;20.10;99.90
17172;DHT22;8701;50.150;8.756;2023-06-10T06:02:55;20.20;99.90
17172;DHT22;8701;50.150;8.756;2023-06-10T06:06:58;20.30;99.90
17172;DHT22;8701;50.150;8.756;2023-06-10T06:11:00;20.40;99.90
17172;DHT22;8701;50.150;8.756;2023-06-10T06:15:05;20.50;99.90
17172;DHT22;8701;50.150;8.756;2023-06-10T06:19:09;20.60;99.90
17172;DHT22;8701;50.150;8.756;2023-06-10T06:23:12;20.70;99.90
17172;DHT22;8701;50.150;8.756;2023-06-10T06:27:14;20.80;99.90
17172;DHT22;8701;50.150;8.756;2023-06-10T06:31:18;20.80;99.90
17172;DHT22;8701;50.150;8.756;2023-06-10T06:35:20;20.90;99.90
17172;DHT22;8701;50.150;8.756;2023-06-10T06:39:22;21.00;99.90
17172;DHT22;8701;50.150;8.756;2023-06-10T06:43:25;21.10;99.90
17172;DHT22;8701;50.150;8.756;2023-06-10T06:47:38;21.20;99.90
17172;DHT22;8701;50.150;8.756;2023-06-10T06:51:41;21.30;99.90
17172;DHT22;8701;50.150;8.756;2023-06-10T06:55:43;21.50;99.90
17172;DHT22;8701;50.150;8.756;2023-06-10T06:59:45;21.50;99.90
17172;DHT22;8701;50.150;8.756;2023-06-10T07:03:49;21.60;99.90
17172;DHT22;8701;50.150;8.756;2023-06-10T07:07:51;21.70;99.90
17172;DHT22;8701;50.150;8.756;2023-06-10T07:11:55;21.80;99.90
17172;DHT22;8701;50.150;8.756;2023-06-10T07:15:58;21.90;99.90
17172;DHT22;8701;50.150;8.756;2023-06-10T07:20:01;22.10;99.90
17172;DHT22;8701;50.150;8.756;2023-06-10T07:24:04;22.20;99.90
17172;DHT22;8701;50.150;8.756;2023-06-10T07:28:06;22.30;99.90
17172;DHT22;8701;50.150;8.756;2023-06-10T07:32:09;22.50;99.90
17172;DHT22;8701;50.150;8.756;2023-06-10T07:36:12;22.60;99.90
17172;DHT22;8701;50.150;8.756;2023-06-10T07:40:14;22.80;99.90
17172;DHT22;8701;50.150;8.756;2023-06-10T07:44:16;23.20;99.90
17172;DHT22;8701;50.150;8.756;2023-06-10T07:48:19;23.80;99.90
17172;DHT22;8701;50.150;8.756;2023-06-10T07:52:23;24.60;99.90
17172;DHT22;8701;50.150;8.756;2023-06-10T07:56:25;25.30;99.90
17172;DHT22;8701;50.150;8.756;2023-06-10T08:00:27;25.90;99.60
17172;DHT22;8701;50.150;8.756;2023-06-10T08:04:30;26.40;98.80
17172;DHT22;8701;50.150;8.756;2023-06-10T08:08:33;27.00;97.70
17172;DHT22;8701;50.150;8.756;2023-06-10T08:12:41;27.60;96.80
17172;DHT22;8701;50.150;8.756;2023-06-10T08:16:43;28.00;96.30
17172;DHT22;8701;50.150;8.756;2023-06-10T08:20:45;28.30;96.10
17172;DHT22;8701;50.150;8.756;2023-06-10T08:24:49;28.70;96.20
17172;DHT22;8701;50.150;8.756;2023-06-10T08:28:51;28.90;95.20
17172;DHT22;8701;50.150;8.756;2023-06-10T08:32:55;29.30;94.60
17172;DHT22;8701;50.150;8.756;2023-06-10T08:36:57;29.50;93.70
17172;DHT22;8701;50.150;8.756;2023-06-10T08:41:00;29.70;93.80
17172;DHT22;8701;50.150;8.756;2023-06-10T08:45:04;30.00;93.20
17172;DHT22;8701;50.150;8.756;2023-06-10T08:49:07;30.20;93.60
17172;DHT22;8701;50.150;8.756;2023-06-10T08:53:12;30.40;92.30
17172;DHT22;8701;50.150;8.756;2023-06-10T08:57:18;30.50;92.60
17172;DHT22;8701;50.150;8.756;2023-06-10T09:01:23;30.70;91.70
17172;DHT22;8701;50.150;8.756;2023-06-10T09:05:27;30.80;92.10
17172;DHT22;8701;50.150;8.756;2023-06-10T09:09:30;31.00;91.20
17172;DHT22;8701;50.150;8.756;2023-06-10T09:13:34;31.10;90.50
17172;DHT22;8701;50.150;8.756;2023-06-10T09:17:37;31.30;90.70
17172;DHT22;8701;50.150;8.756;2023-06-10T09:21:39;31.60;91.60
17172;DHT22;8701;50.150;8.756;2023-06-10T09:25:41;32.00;91.50
17172;DHT22;8701;50.150;8.756;2023-06-10T09:29:51;32.10;90.00
17172;DHT22;8701;50.150;8.756;2023-06-10T09:33:54;32.30;92.00
17172;DHT22;8701;50.150;8.756;2023-06-10T09:37:57;32.40;88.10
17172;DHT22;8701;50.150;8.756;2023-06-10T09:41:59;32.30;89.30
17172;DHT22;8701;50.150;8.756;2023-06-10T09:46:03;32.30;90.30
17172;DHT22;8701;50.150;8.756;2023-06-10T09:50:06;32.70;90.20
17172;DHT22;8701;50.150;8.756;2023-06-10T09:54:08;32.50;87.40
17172;DHT22;8701;50.150;8.756;2023-06-10T09:58:10;32.80;87.30
17172;DHT22;8701;50.150;8.756;2023-06-10T10:02:15;32.80;89.10
17172;DHT22;8701;50.150;8.756;2023-06-10T10:06:18;32.80;94.70
17172;DHT22;8701;50.150;8.756;2023-06-10T10:10:21;33.00;90.70
17172;DHT22;8701;50.150;8.756;2023-06-10T10:14:23;33.00;87.60
17172;DHT22;8701;50.150;8.756;2023-06-10T10:18:29;33.20;85.90
17172;DHT22;8701;50.150;8.756;2023-06-10T10:22:37;33.40;87.00
17172;DHT22;8701;50.150;8.756;2023-06-10T10:26:40;33.30;88.90
17172;DHT22;8701;50.150;8.756;2023-06-10T10:30:46;33.00;87.30
17172;DHT22;8701;50.150;8.756;2023-06-10T10:34:56;32.90;85.80
17172;DHT22;8701;50.150;8.756;2023-06-10T10:39:00;32.50;84.50
17172;DHT22;8701;50.150;8.756;2023-06-10T10:43:04;32.10;86.70
17172;DHT22;8701;50.150;8.756;2023-06-10T10:47:08;31.60;89.50
17172;DHT22;8701;50.150;8.756;2023-06-10T10:51:12;31.60;88.50
17172;DHT22;8701;50.150;8.756;2023-06-10T10:55:17;31.80;86.20
17172;DHT22;8701;50.150;8.756;2023-06-10T10:59:24;32.20;92.40
17172;DHT22;8701;50.150;8.756;2023-06-10T11:03:29;32.20;87.70
17172;DHT22;8701;50.150;8.756;2023-06-10T11:07:34;32.00;85.90
17172;DHT22;8701;50.150;8.756;2023-06-10T11:11:49;32.30;85.00
17172;DHT22;8701;50.150;8.756;2023-06-10T11:15:52;32.40;90.10
17172;DHT22;8701;50.150;8.756;2023-06-10T11:19:59;32.60;86.60
17172;DHT22;8701;50.150;8.756;2023-06-10T11:24:11;32.80;84.70
17172;DHT22;8701;50.150;8.756;2023-06-10T11:28:17;32.90;85.10
17172;DHT22;8701;50.150;8.756;2023-06-10T11:32:20;32.80;85.90
17172;DHT22;8701;50.150;8.756;2023-06-10T11:36:22;32.90;82.80
17172;DHT22;8701;50.150;8.756;2023-06-10T11:40:26;32.50;85.20
17172;DHT22;8701;50.150;8.756;2023-06-10T11:44:31;32.20;83.80
17172;DHT22;8701;50.150;8.756;2023-06-10T11:48:34;31.80;87.30
17172;DHT22;8701;50.150;8.756;2023-06-10T11:52:38;31.70;86.50
17172;DHT22;8701;50.150;8.756;2023-06-10T11:56:43;32.00;90.40
17172;DHT22;8701;50.150;8.756;2023-06-10T12:00:46;32.40;85.30
17172;DHT22;8701;50.150;8.756;2023-06-10T12:04:49;32.10;84.30
17172;DHT22;8701;50.150;8.756;2023-06-10T12:08:51;31.90;85.00
17172;DHT22;8701;50.150;8.756;2023-06-10T12:12:55;31.90;86.30
17172;DHT22;8701;50.150;8.756;2023-06-10T12:16:57;31.90;85.60
17172;DHT22;8701;50.150;8.756;2023-06-10T12:21:00;31.90;86.20
17172;DHT22;8701;50.150;8.756;2023-06-10T12:25:06;31.90;84.10
17172;DHT22;8701;50.150;8.756;2023-06-10T12:29:23;32.20;84.70
17172;DHT22;8701;50.150;8.756;2023-06-10T12:33:26;32.40;90.40
17172;DHT22;8701;50.150;8.756;2023-06-10T12:37:29;32.40;84.50
17172;DHT22;8701;50.150;8.756;2023-06-10T12:41:36;32.30;84.00
17172;DHT22;8701;50.150;8.756;2023-06-10T12:45:41;32.30;86.00
17172;DHT22;8701;50.150;8.756;2023-06-10T12:49:45;32.30;88.80
17172;DHT22;8701;50.150;8.756;2023-06-10T12:53:48;32.40;87.40
17172;DHT22;8701;50.150;8.756;2023-06-10T12:57:50;32.40;83.40
17172;DHT22;8701;50.150;8.756;2023-06-10T13:01:54;32.40;82.70
17172;DHT22;8701;50.150;8.756;2023-06-10T13:05:56;32.00;82.50
17172;DHT22;8701;50.150;8.756;2023-06-10T13:09:59;31.90;83.70
17172;DHT22;8701;50.150;8.756;2023-06-10T13:14:02;32.10;82.50
17172;DHT22;8701;50.150;8.756;2023-06-10T13:18:06;32.30;84.50
17172;DHT22;8701;50.150;8.756;2023-06-10T13:22:08;32.40;82.30
17172;DHT22;8701;50.150;8.756;2023-06-10T13:26:10;32.10;82.40
17172;DHT22;8701;50.150;8.756;2023-06-10T13:30:13;31.70;84.10
17172;DHT22;8701;50.150;8.756;2023-06-10T13:34:17;31.40;84.90
17172;DHT22;8701;50.150;8.756;2023-06-10T13:38:19;31.40;85.00
17172;DHT22;8701;50.150;8.756;2023-06-10T13:42:21;31.30;86.20
17172;DHT22;8701;50.150;8.756;2023-06-10T13:46:23;31.50;84.00
17172;DHT22;8701;50.150;8.756;2023-06-10T13:50:28;31.30;85.00
17172;DHT22;8701;50.150;8.756;2023-06-10T13:54:30;31.10;84.50
17172;DHT22;8701;50.150;8.756;2023-06-10T13:58:33;31.00;85.30
17172;DHT22;8701;50.150;8.756;2023-06-10T14:02:39;31.40;84.70
17172;DHT22;8701;50.150;8.756;2023-06-10T14:06:43;31.40;80.00
17172;DHT22;8701;50.150;8.756;2023-06-10T14:10:46;31.40;85.60
17172;DHT22;8701;50.150;8.756;2023-06-10T14:14:49;31.50;82.90
17172;DHT22;8701;50.150;8.756;2023-06-10T14:18:51;31.50;82.90
17172;DHT22;8701;50.150;8.756;2023-06-10T14:22:54;31.20;83.50
17172;DHT22;8701;50.150;8.756;2023-06-10T14:26:57;31.40;83.00
17172;DHT22;8701;50.150;8.756;2023-06-10T14:30:59;31.30;86.60
17172;DHT22;8701;50.150;8.756;2023-06-10T14:35:01;31.30;83.50
17172;DHT22;8701;50.150;8.756;2023-06-10T14:39:05;31.20;83.20
17172;DHT22;8701;50.150;8.756;2023-06-10T14:43:07;30.90;84.30
17172;DHT22;8701;50.150;8.756;2023-06-10T14:47:11;30.80;84.00
17172;DHT22;8701;50.150;8.756;2023-06-10T14:51:13;30.90;83.40
17172;DHT22;8701;50.150;8.756;2023-06-10T14:55:16;30.80;83.60
17172;DHT22;8701;50.150;8.756;2023-06-10T14:59:18;30.80;83.30
17172;DHT22;8701;50.150;8.756;2023-06-10T15:03:21;30.90;82.80
17172;DHT22;8701;50.150;8.756;2023-06-10T15:07:23;30.80;83.10
17172;DHT22;8701;50.150;8.756;2023-06-10T15:11:27;30.70;83.70
17172;DHT22;8701;50.150;8.756;2023-06-10T15:15:29;30.60;84.40
17172;DHT22;8701;50.150;8.756;2023-06-10T15:19:31;30.30;84.50
17172;DHT22;8701;50.150;8.756;2023-06-10T15:23:33;30.00;84.40
17172;DHT22;8701;50.150;8.756;2023-06-10T15:27:37;29.70;85.60
17172;DHT22;8701;50.150;8.756;2023-06-10T15:31:40;29.50;86.30
17172;DHT22;8701;50.150;8.756;2023-06-10T15:35:42;29.40;86.80
17172;DHT22;8701;50.150;8.756;2023-06-10T15:39:44;29.40;86.80
17172;DHT22;8701;50.150;8.756;2023-06-10T15:43:48;29.30;86.60
17172;DHT22;8701;50.150;8.756;2023-06-10T15:47:50;29.20;87.00
17172;DHT22;8701;50.150;8.756;2023-06-10T15:51:52;29.10;86.50
17172;DHT22;8701;50.150;8.756;2023-06-10T15:55:54;29.00;86.70
17172;DHT22;8701;50.150;8.756;2023-06-10T15:59:58;28.80;87.90
17172;DHT22;8701;50.150;8.756;2023-06-10T16:04:00;28.70;88.50
17172;DHT22;8701;50.150;8.756;2023-06-10T16:08:02;28.70;88.30
17172;DHT22;8701;50.150;8.756;2023-06-10T16:12:05;28.60;89.40
17172;DHT22;8701;50.150;8.756;2023-06-10T16:16:09;28.40;89.10
17172;DHT22;8701;50.150;8.756;2023-06-10T16:20:12;28.40;89.00
17172;DHT22;8701;50.150;8.756;2023-06-10T16:24:14;28.40;89.20
17172;DHT22;8701;50.150;8.756;2023-06-10T16:28:16;28.20;89.10
17172;DHT22;8701;50.150;8.756;2023-06-10T16:32:20;28.10;90.10
17172;DHT22;8701;50.150;8.756;2023-06-10T16:36:22;28.00;90.00
17172;DHT22;8701;50.150;8.756;2023-06-10T16:40:24;27.90;90.00
17172;DHT22;8701;50.150;8.756;2023-06-10T16:44:27;27.90;90.00
17172;DHT22;8701;50.150;8.756;2023-06-10T16:48:30;27.80;90.00
17172;DHT22;8701;50.150;8.756;2023-06-10T16:52:33;27.80;90.20
17172;DHT22;8701;50.150;8.756;2023-06-10T16:56:35;27.70;90.30
17172;DHT22;8701;50.150;8.756;2023-06-10T17:00:37;27.70;90.60
17172;DHT22;8701;50.150;8.756;2023-06-10T17:04:41;27.60;90.70
17172;DHT22;8701;50.150;8.756;2023-06-10T17:08:43;27.50;90.70
17172;DHT22;8701;50.150;8.756;2023-06-10T17:12:45;27.50;91.00
17172;DHT22;8701;50.150;8.756;2023-06-10T17:16:48;27.50;91.00
17172;DHT22;8701;50.150;8.756;2023-06-10T17:20:51;27.40;91.00
17172;DHT22;8701;50.150;8.756;2023-06-10T17:24:54;27.50;91.10
17172;DHT22;8701;50.150;8.756;2023-06-10T17:28:56;27.60;91.70
17172;DHT22;8701;50.150;8.756;2023-06-10T17:32:58;27.50;91.50
17172;DHT22;8701;50.150;8.756;2023-06-10T17:37:02;27.50;91.60
17172;DHT22;8701;50.150;8.756;2023-06-10T17:41:04;27.40;91.70
17172;DHT22;8701;50.150;8.756;2023-06-10T17:45:08;27.30;92.40
17172;DHT22;8701;50.150;8.756;2023-06-10T17:49:11;27.30;92.40
17172;DHT22;8701;50.150;8.756;2023-06-10T17:53:14;27.20;92.10
17172;DHT22;8701;50.150;8.756;2023-06-10T17:57:16;27.20;92.10
17172;DHT22;8701;50.150;8.756;2023-06-10T18:01:19;27.10;92.20
17172;DHT22;8701;50.150;8.756;2023-06-10T18:05:21;27.00;92.10
17172;DHT22;8701;50.150;8.756;2023-06-10T18:09:24;27.00;92.50
17172;DHT22;8701;50.150;8.756;2023-06-10T18:13:27;26.90;92.50
17172;DHT22;8701;50.150;8.756;2023-06-10T18:17:29;26.80;92.60
17172;DHT22;8701;50.150;8.756;2023-06-10T18:21:31;26.70;92.60
17172;DHT22;8701;50.150;8.756;2023-06-10T18:25:35;26.60;92.80
17172;DHT22;8701;50.150;8.756;2023-06-10T18:29:37;26.50;92.90
17172;DHT22;8701;50.150;8.756;2023-06-10T18:33:39;26.40;92.90
17172;DHT22;8701;50.150;8.756;2023-06-10T18:37:41;26.40;92.90
17172;DHT22;8701;50.150;8.756;2023-06-10T18:41:45;26.30;93.10
17172;DHT22;8701;50.150;8.756;2023-06-10T18:45:47;26.20;93.00
17172;DHT22;8701;50.150;8.756;2023-06-10T18:49:49;26.20;93.20
17172;DHT22;8701;50.150;8.756;2023-06-10T18:53:52;26.20;93.20
17172;DHT22;8701;50.150;8.756;2023-06-10T18:57:55;26.10;93.20
17172;DHT22;8701;50.150;8.756;2023-06-10T19:01:57;26.00;93.30
17172;DHT22;8701;50.150;8.756;2023-06-10T19:06:00;25.90;93.20
17172;DHT22;8701;50.150;8.756;2023-06-10T19:10:03;25.90;93.70
17172;DHT22;8701;50.150;8.756;2023-06-10T19:14:06;25.80;93.80
17172;DHT22;8701;50.150;8.756;2023-06-10T19:18:09;25.70;93.60
17172;DHT22;8701;50.150;8.756;2023-06-10T19:22:11;25.60;93.90
17172;DHT22;8701;50.150;8.756;2023-06-10T19:26:13;25.50;93.70
17172;DHT22;8701;50.150;8.756;2023-06-10T19:30:17;25.50;93.70
17172;DHT22;8701;50.150;8.756;2023-06-10T19:34:19;25.40;93.80
17172;DHT22;8701;50.150;8.756;2023-06-10T19:38:21;25.30;93.70
17172;DHT22;8701;50.150;8.756;2023-06-10T19:42:23;25.30;93.90
17172;DHT22;8701;50.150;8.756;2023-06-10T19:46:27;25.20;94.00
17172;DHT22;8701;50.150;8.756;2023-06-10T19:50:29;25.10;94.20
17172;DHT22;8701;50.150;8.756;2023-06-10T19:54:32;25.10;94.30
17172;DHT22;8701;50.150;8.756;2023-06-10T19:58:34;25.00;94.30
17172;DHT22;8701;50.150;8.756;2023-06-10T20:02:38;24.90;94.40
17172;DHT22;8701;50.150;8.756;2023-06-10T20:06:40;24.90;94.50
17172;DHT22;8701;50.150;8.756;2023-06-10T20:10:43;24.90;94.70
17172;DHT22;8701;50.150;8.756;2023-06-10T20:14:46;24.80;94.70
17172;DHT22;8701;50.150;8.756;2023-06-10T20:18:51;24.80;95.10
17172;DHT22;8701;50.150;8.756;2023-06-10T20:22:53;24.70;95.10
17172;DHT22;8701;50.150;8.756;2023-06-10T20:26:56;24.60;95.20
17172;DHT22;8701;50.150;8.756;2023-06-10T20:31:00;24.60;95.80
17172;DHT22;8701;50.150;8.756;2023-06-10T20:35:05;24.60;95.50
17172;DHT22;8701;50.150;8.756;2023-06-10T20:39:08;24.50;95.80
17172;DHT22;8701;50.150;8.756;2023-06-10T20:43:10;24.40;95.70
17172;DHT22;8701;50.150;8.756;2023-06-10T20:47:12;24.30;95.60
17172;DHT22;8701;50.150;8.756;2023-06-10T20:51:16;24.30;95.60
17172;DHT22;8701;50.150;8.756;2023-06-10T20:55:18;24.20;95.90
17172;DHT22;8701;50.150;8.756;2023-06-10T20:59:20;24.20;96.30
17172;DHT22;8701;50.150;8.756;2023-06-10T21:03:23;24.10;96.10
17172;DHT22;8701;50.150;8.756;2023-06-10T21:07:26;24.10;96.10
17172;DHT22;8701;50.150;8.756;2023-06-10T21:11:29;24.00;96.20
17172;DHT22;8701;50.150;8.756;2023-06-10T21:15:31;24.00;96.70
17172;DHT22;8701;50.150;8.756;2023-06-10T21:19:33;24.00;96.70
17172;DHT22;8701;50.150;8.756;2023-06-10T21:23:36;23.90;96.50
17172;DHT22;8701;50.150;8.756;2023-06-10T21:27:39;23.90;96.50
17172;DHT22;8701;50.150;8.756;2023-06-10T21:31:41;23.80;96.70
17172;DHT22;8701;50.150;8.756;2023-06-10T21:35:43;23.80;97.00
17172;DHT22;8701;50.150;8.756;2023-06-10T21:39:47;23.70;97.00
17172;DHT22;8701;50.150;8.756;2023-06-10T21:43:49;23.70;97.10
17172;DHT22;8701;50.150;8.756;2023-06-10T21:47:51;23.60;97.00
17172;DHT22;8701;50.150;8.756;2023-06-10T21:51:53;23.70;97.60
17172;DHT22;8701;50.150;8.756;2023-06-10T21:55:57;23.50;97.20
17172;DHT22;8701;50.150;8.756;2023-06-10T21:59:59;23.50;97.20
17172;DHT22;8701;50.150;8.756;2023-06-10T22:04:01;23.50;97.20
17172;DHT22;8701;50.150;8.756;2023-06-10T22:08:03;23.50;97.20
17172;DHT22;8701;50.150;8.756;2023-06-10T22:12:08;23.40;97.50
17172;DHT22;8701;50.150;8.756;2023-06-10T22:16:10;23.40;97.40
17172;DHT22;8701;50.150;8.756;2023-06-10T22:20:13;23.40;97.80
17172;DHT22;8701;50.150;8.756;2023-06-10T22:24:15;23.30;97.70
17172;DHT22;8701;50.150;8.756;2023-06-10T22:28:19;23.30;97.90
17172;DHT22;8701;50.150;8.756;2023-06-10T22:32:21;23.20;98.10
17172;DHT22;8701;50.150;8.756;2023-06-10T22:36:23;23.10;98.20
17172;DHT22;8701;50.150;8.756;2023-06-10T22:40:26;23.10;98.20
17172;DHT22;8701;50.150;8.756;2023-06-10T22:44:29;23.00;98.40
17172;DHT22;8701;50.150;8.756;2023-06-10T22:48:31;23.00;98.50
17172;DHT22;8701;50.150;8.756;2023-06-10T22:52:34;22.90;98.80
17172;DHT22;8701;50.150;8.756;2023-06-10T22:56:37;22.90;98.70
17172;DHT22;8701;50.150;8.756;2023-06-10T23:00:40;22.90;98.80
17172;DHT22;8701;50.150;8.756;2023-06-10T23:04:42;22.80;99.00
17172;DHT22;8701;50.150;8.756;2023-06-10T23:08:44;22.80;98.80
17172;DHT22;8701;50.150;8.756;2023-06-10T23:12:47;22.80;99.10
17172;DHT22;8701;50.150;8.756;2023-06-10T23:16:51;22.80;99.30
17172;DHT22;8701;50.150;8.756;2023-06-10T23:20:55;22.80;99.00
17172;DHT22;8701;50.150;8.756;2023-06-10T23:24:58;22.70;98.70
17172;DHT22;8701;50.150;8.756;2023-06-10T23:29:03;22.70;98.80
17172;DHT22;8701;50.150;8.756;2023-06-10T23:33:07;22.70;98.80
17172;DHT22;8701;50.150;8.756;2023-06-10T23:37:11;22.70;98.90
17172;DHT22;8701;50.150;8.756;2023-06-10T23:41:13;22.70;98.90
17172;DHT22;8701;50.150;8.756;2023-06-10T23:45:15;22.70;99.00
17172;DHT22;8701;50.150;8.756;2023-06-10T23:49:19;22.60;99.00
17172;DHT22;8701;50.150;8.756;2023-06-10T23:53:21;22.60;99.40
17172;DHT22;8701;50.150;8.756;2023-06-10T23:57:23;22.50;99.20
